createdAt,value
2022-12-14T00:00:27.733Z,65.23
2022-12-14T00:02:57.256Z,65.33
2022-12-14T00:05:29.401Z,65.74
2022-12-14T00:07:58.246Z,65.56
2022-12-14T00:10:27.365Z,65.90
2022-12-14T00:12:56.325Z,66.11
2022-12-14T00:15:25.448Z,66.07
2022-12-14T00:17:54.474Z,66.29
2022-12-14T00:20:23.816Z,65.76
2022-12-14T00:22:55.316Z,66.19
2022-12-14T00:25:25.519Z,66.91
2022-12-14T00:27:54.563Z,66.55
2022-12-14T00:30:23.410Z,66.60
2022-12-14T00:32:52.258Z,66.94
2022-12-14T00:35:21.154Z,66.68
2022-12-14T00:37:50.099Z,65.93
2022-12-14T00:40:20.805Z,66.21
2022-12-14T00:42:49.776Z,66.36
2022-12-14T00:45:18.866Z,66.80
2022-12-14T00:47:47.746Z,66.30
2022-12-14T00:50:16.816Z,66.74
2022-12-14T00:52:45.645Z,67.04
2022-12-14T00:55:16.382Z,67.03
2022-12-14T00:57:46.677Z,67.43
2022-12-14T01:00:17.573Z,67.16
2022-12-14T01:02:46.609Z,66.95
2022-12-14T01:05:15.655Z,66.95
2022-12-14T01:07:44.641Z,67.50
2022-12-14T01:10:17.869Z,67.98
2022-12-14T01:12:48.189Z,67.92
2022-12-14T01:15:17.288Z,67.80
2022-12-14T01:17:46.235Z,67.83
2022-12-14T01:20:15.190Z,68.00
2022-12-14T01:22:43.998Z,68.47
2022-12-14T01:25:13.454Z,68.58
2022-12-14T01:27:45.702Z,68.28
2022-12-14T01:33:28.248Z,68.18
2022-12-14T01:36:01.960Z,68.48
2022-12-14T01:38:40.527Z,68.66
2022-12-14T01:41:18.566Z,68.14
2022-12-14T01:43:49.832Z,68.42
2022-12-14T01:46:26.813Z,68.49
2022-12-14T01:49:03.911Z,68.93
2022-12-14T01:51:36.154Z,68.86
2022-12-14T01:54:11.713Z,68.66
2022-12-14T01:56:46.142Z,68.72
2022-12-14T01:59:20.382Z,68.45
2022-12-14T02:01:50.326Z,68.62
2022-12-14T02:04:22.226Z,68.81
2022-12-14T02:06:59.406Z,68.81
2022-12-14T02:09:37.968Z,69.01
2022-12-14T02:12:16.134Z,68.85
2022-12-14T02:14:46.664Z,68.99
2022-12-14T02:17:17.260Z,68.78
2022-12-14T02:19:49.575Z,68.49
2022-12-14T02:23:01.403Z,68.61
2022-12-14T02:26:14.195Z,68.84
2022-12-14T02:29:35.419Z,69.07
2022-12-14T02:32:24.173Z,69.21
2022-12-14T02:35:05.368Z,69.44
2022-12-14T02:37:49.264Z,69.02
2022-12-14T02:40:31.302Z,68.84
2022-12-14T02:43:15.241Z,69.18
2022-12-14T02:45:56.703Z,69.11
2022-12-14T02:48:35.876Z,69.49
2022-12-14T02:51:21.961Z,69.13
2022-12-14T02:54:02.493Z,69.50
2022-12-14T02:56:39.524Z,69.41
2022-12-14T02:59:10.772Z,69.22
2022-12-14T03:01:45.391Z,69.02
2022-12-14T03:04:17.421Z,68.91
2022-12-14T03:07:00.125Z,69.63
2022-12-14T03:09:32.553Z,69.88
2022-12-14T03:12:08.396Z,69.82
2022-12-14T03:14:46.150Z,69.67
2022-12-14T03:17:23.268Z,70.06
2022-12-14T03:20:00.936Z,70.02
2022-12-14T03:22:40.749Z,69.84
2022-12-14T03:25:16.084Z,69.98
2022-12-14T03:27:52.225Z,69.79
2022-12-14T03:30:44.322Z,70.25
2022-12-14T03:33:22.453Z,70.29
2022-12-14T03:35:59.006Z,70.23
2022-12-14T03:38:37.218Z,70.79
2022-12-14T03:41:24.184Z,70.42
2022-12-14T03:44:26.192Z,70.26
2022-12-14T03:47:05.394Z,70.27
2022-12-14T03:49:56.708Z,70.58
2022-12-14T03:52:34.053Z,70.88
2022-12-14T03:55:25.335Z,70.30
2022-12-14T03:58:15.813Z,70.68
2022-12-14T04:00:53.615Z,70.95
2022-12-14T04:03:37.684Z,71.19
2022-12-14T04:06:15.357Z,71.36
2022-12-14T04:08:51.871Z,71.12
2022-12-14T04:11:42.091Z,71.09
2022-12-14T04:14:33.624Z,71.11
2022-12-14T04:17:28.987Z,71.53
2022-12-14T04:20:08.140Z,71.71
2022-12-14T04:22:46.159Z,71.72
2022-12-14T04:25:39.841Z,71.58
2022-12-14T04:28:29.743Z,71.65
2022-12-14T04:31:03.142Z,72.50
2022-12-14T04:33:50.528Z,72.00
2022-12-14T04:36:26.693Z,72.38
2022-12-14T04:39:03.730Z,71.93
2022-12-14T04:41:39.490Z,72.73
2022-12-14T04:44:17.344Z,73.01
2022-12-14T04:46:48.033Z,72.57
2022-12-14T04:49:28.327Z,72.67
2022-12-14T04:52:06.252Z,72.67
2022-12-14T04:54:48.431Z,72.87
2022-12-14T04:57:32.530Z,72.48
2022-12-14T05:00:04.318Z,72.71
2022-12-14T05:02:58.148Z,72.41
2022-12-14T05:05:36.357Z,72.50
2022-12-14T05:08:13.552Z,72.15
2022-12-14T05:10:50.321Z,72.31
2022-12-14T05:13:27.111Z,72.11
2022-12-14T05:15:59.917Z,72.55
2022-12-14T05:18:29.232Z,72.55
2022-12-14T05:20:58.173Z,72.66
2022-12-14T05:23:27.261Z,73.12
2022-12-14T05:26:00.236Z,72.83
2022-12-14T05:28:32.397Z,73.04
2022-12-14T05:31:01.839Z,72.63
2022-12-14T05:33:33.635Z,72.67
2022-12-14T05:36:02.624Z,72.81
2022-12-14T05:38:31.882Z,72.48
2022-12-14T05:41:02.749Z,72.90
2022-12-14T05:43:31.493Z,72.80
2022-12-14T05:46:00.802Z,72.75
2022-12-14T05:48:30.100Z,72.90
2022-12-14T05:51:07.654Z,72.87
2022-12-14T05:53:36.747Z,73.78
2022-12-14T05:56:08.735Z,73.21
2022-12-14T05:58:39.685Z,73.15
2022-12-14T06:01:17.043Z,74.10
2022-12-14T06:03:47.836Z,73.70
2022-12-14T06:06:16.696Z,73.89
2022-12-14T06:08:47.401Z,74.18
2022-12-14T06:11:20.398Z,74.45
2022-12-14T06:13:50.434Z,74.03
2022-12-14T06:16:23.086Z,74.31
2022-12-14T06:18:54.214Z,74.83
2022-12-14T06:21:25.795Z,75.46
2022-12-14T06:23:56.468Z,75.89
2022-12-14T06:26:29.028Z,76.80
2022-12-14T06:28:59.472Z,77.34
2022-12-14T06:31:31.229Z,77.48
2022-12-14T06:34:28.772Z,77.71
2022-12-14T06:36:57.661Z,77.17
2022-12-14T06:39:26.556Z,77.08
2022-12-14T06:41:56.704Z,77.45
2022-12-14T06:44:25.574Z,78.52
2022-12-14T06:46:54.406Z,78.57
2022-12-14T06:49:23.761Z,78.97
2022-12-14T06:51:53.035Z,78.99
2022-12-14T06:54:22.105Z,78.44
2022-12-14T06:56:50.872Z,78.02
2022-12-14T06:59:21.054Z,77.96
2022-12-14T07:01:50.447Z,77.98
2022-12-14T07:04:21.482Z,78.20
2022-12-14T07:06:50.532Z,78.63
2022-12-14T07:09:19.674Z,79.11
2022-12-14T07:11:52.131Z,78.80
2022-12-14T07:14:22.436Z,79.47
2022-12-14T07:16:52.619Z,79.94
2022-12-14T07:19:22.475Z,79.51
2022-12-14T07:21:54.264Z,79.75
2022-12-14T07:24:23.058Z,79.22
2022-12-14T07:26:51.828Z,79.29
2022-12-14T07:29:21.983Z,78.56
2022-12-14T07:31:50.706Z,78.10
2022-12-14T07:34:19.516Z,77.73
2022-12-14T07:36:51.972Z,77.69
2022-12-14T07:39:22.440Z,77.54
2022-12-14T07:41:54.672Z,77.24
2022-12-14T07:44:25.403Z,77.19
2022-12-14T07:46:55.279Z,77.58
2022-12-14T07:52:21.230Z,77.72
2022-12-14T07:54:48.999Z,77.47
2022-12-14T07:57:17.748Z,77.59
2022-12-14T07:59:46.470Z,77.66
2022-12-14T08:02:16.653Z,77.64
2022-12-14T08:04:45.740Z,77.33
2022-12-14T08:07:14.487Z,77.43
2022-12-14T08:09:44.629Z,77.51
2022-12-14T08:12:13.574Z,77.81
2022-12-14T08:14:42.506Z,77.71
2022-12-14T08:17:11.327Z,78.50
2022-12-14T08:19:40.134Z,78.46
2022-12-14T08:22:08.964Z,78.02
2022-12-14T08:24:37.701Z,77.99
2022-12-14T08:27:07.933Z,77.82
2022-12-14T08:29:36.759Z,77.63
2022-12-14T08:32:06.175Z,77.52
2022-12-14T08:34:34.927Z,77.64
2022-12-14T08:37:03.686Z,77.54
2022-12-14T08:39:32.628Z,77.25
2022-12-14T08:42:01.393Z,77.44
2022-12-14T08:44:31.490Z,77.58
2022-12-14T08:47:00.443Z,77.58
2022-12-14T08:49:32.478Z,77.69
2022-12-14T08:52:01.628Z,77.88
2022-12-14T08:54:30.700Z,77.88
2022-12-14T08:57:00.025Z,77.90
2022-12-14T08:59:59.301Z,78.00
2022-12-14T09:02:19.209Z,77.81
2022-12-14T09:04:48.032Z,77.94
2022-12-14T09:07:16.797Z,77.85
2022-12-14T09:09:45.623Z,77.95
2022-12-14T09:12:14.513Z,78.12
2022-12-14T09:14:46.725Z,78.29
2022-12-14T09:17:19.084Z,78.58
2022-12-14T09:19:47.822Z,78.85
2022-12-14T09:22:16.745Z,78.97
2022-12-14T09:24:45.813Z,78.96
2022-12-14T09:27:14.598Z,78.77
2022-12-14T09:29:44.927Z,78.64
2022-12-14T09:32:14.342Z,78.68
2022-12-14T09:34:43.144Z,78.78
2022-12-14T09:37:12.670Z,79.00
2022-12-14T09:39:41.768Z,78.88
2022-12-14T09:42:38.427Z,78.98
2022-12-14T09:45:22.773Z,79.32
2022-12-14T09:48:02.049Z,79.10
2022-12-14T09:50:31.578Z,79.30
2022-12-14T09:53:06.617Z,79.17
2022-12-14T09:55:39.396Z,79.33
2022-12-14T09:58:22.279Z,79.33
2022-12-14T10:01:04.500Z,79.42
2022-12-14T10:03:52.408Z,79.26
2022-12-14T10:06:37.333Z,79.13
2022-12-14T10:09:20.680Z,78.50
2022-12-14T10:12:05.234Z,78.41
2022-12-14T10:15:02.033Z,77.62
2022-12-14T10:18:00.308Z,77.25
2022-12-14T10:20:43.081Z,77.11
2022-12-14T10:23:22.800Z,76.06
2022-12-14T10:25:57.814Z,75.30
2022-12-14T10:28:43.212Z,75.09
2022-12-14T10:31:17.611Z,74.71
2022-12-14T10:33:49.167Z,74.52
2022-12-14T10:36:24.431Z,74.17
2022-12-14T10:39:01.863Z,74.77
2022-12-14T10:41:42.067Z,74.05
2022-12-14T10:44:23.644Z,74.64
2022-12-14T10:47:02.858Z,74.64
2022-12-14T10:49:45.992Z,73.88
2022-12-14T10:52:20.976Z,74.00
2022-12-14T10:54:55.201Z,73.81
2022-12-14T10:57:27.689Z,73.53
2022-12-14T11:00:08.539Z,73.06
2022-12-14T11:02:43.977Z,72.01
2022-12-14T11:05:36.060Z,72.48
2022-12-14T11:08:07.984Z,72.95
2022-12-14T11:10:39.868Z,72.92
2022-12-14T11:13:21.936Z,72.64
2022-12-14T11:15:53.809Z,72.22
2022-12-14T11:18:32.196Z,72.91
2022-12-14T11:21:06.163Z,72.53
2022-12-14T11:23:41.855Z,72.40
2022-12-14T11:26:16.585Z,71.92
2022-12-14T11:28:51.613Z,72.10
2022-12-14T11:31:27.174Z,71.00
2022-12-14T11:33:58.780Z,70.86
2022-12-14T11:36:38.096Z,71.02
2022-12-14T11:39:22.742Z,70.99
2022-12-14T11:42:00.916Z,69.70
2022-12-14T11:44:38.641Z,70.58
2022-12-14T11:47:14.267Z,70.70
2022-12-14T11:49:47.718Z,70.17
2022-12-14T11:52:21.276Z,69.91
2022-12-14T11:55:13.061Z,69.83
2022-12-14T11:57:53.868Z,68.94
2022-12-14T12:00:29.504Z,68.71
2022-12-14T12:03:06.379Z,68.87
2022-12-14T12:05:44.247Z,68.55
2022-12-14T12:08:28.325Z,68.51
2022-12-14T12:11:02.609Z,68.17
2022-12-14T12:13:40.829Z,67.65
2022-12-14T12:23:24.917Z,67.92
2022-12-14T12:25:57.566Z,67.74
2022-12-14T12:28:32.509Z,67.68
2022-12-14T12:31:11.502Z,67.77
2022-12-14T12:33:48.704Z,67.48
2022-12-14T12:36:24.297Z,67.13
2022-12-14T12:39:09.136Z,67.84
2022-12-14T12:41:54.378Z,67.89
2022-12-14T12:44:49.810Z,66.97
2022-12-14T12:47:46.063Z,67.06
2022-12-14T12:50:20.518Z,67.92
2022-12-14T12:53:03.043Z,67.89
2022-12-14T12:55:43.079Z,68.11
2022-12-14T12:58:22.260Z,68.55
2022-12-14T13:00:55.633Z,68.36
2022-12-14T13:03:32.411Z,68.08
2022-12-14T13:06:15.415Z,67.88
2022-12-14T13:08:49.950Z,67.84
2022-12-14T13:11:28.184Z,68.36
2022-12-14T13:14:04.461Z,68.84
2022-12-14T13:17:36.106Z,68.93
2022-12-14T13:20:16.817Z,69.54
2022-12-14T13:22:47.837Z,69.75
2022-12-14T13:25:24.499Z,69.91
2022-12-14T13:28:30.191Z,70.90
2022-12-14T13:31:18.233Z,70.82
2022-12-14T13:34:16.098Z,69.78
2022-12-14T13:37:45.575Z,70.07
2022-12-14T13:40:55.152Z,69.65
2022-12-14T13:43:52.180Z,70.03
2022-12-14T13:46:26.058Z,70.06
2022-12-14T13:49:00.107Z,69.74
2022-12-14T13:51:36.909Z,69.95
2022-12-14T13:54:17.617Z,70.41
2022-12-14T13:56:47.737Z,70.41
2022-12-14T13:59:33.073Z,70.28
2022-12-14T14:02:06.230Z,70.27
2022-12-14T14:04:36.807Z,70.39
2022-12-14T14:07:51.964Z,70.94
2022-12-14T14:10:34.683Z,70.89
2022-12-14T14:14:04.514Z,70.98
2022-12-14T14:16:43.995Z,71.02
2022-12-14T14:19:24.123Z,71.04
2022-12-14T14:22:26.257Z,71.59
2022-12-14T14:25:01.185Z,71.74
2022-12-14T14:27:37.749Z,71.92
2022-12-14T14:36:26.374Z,73.18
2022-12-14T14:38:58.510Z,73.38
2022-12-14T14:41:42.354Z,73.00
2022-12-14T14:44:31.748Z,72.69
2022-12-14T14:47:07.394Z,72.61
2022-12-14T14:49:43.036Z,72.51
2022-12-14T14:52:59.961Z,72.42
2022-12-14T14:56:33.643Z,72.68
2022-12-14T14:59:51.015Z,74.30
2022-12-14T15:02:39.213Z,75.16
2022-12-14T15:05:41.605Z,74.66
2022-12-14T15:08:20.099Z,75.03
2022-12-14T15:10:51.815Z,75.07
2022-12-14T15:13:26.803Z,75.07
2022-12-14T15:15:56.668Z,74.97
2022-12-14T15:18:28.668Z,74.91
2022-12-14T15:21:03.241Z,75.35
2022-12-14T15:23:38.625Z,76.16
2022-12-14T15:26:17.418Z,75.88
2022-12-14T15:29:04.744Z,75.45
2022-12-14T15:31:40.009Z,75.49
2022-12-14T15:34:17.214Z,76.17
2022-12-14T15:36:47.343Z,76.69
2022-12-14T15:39:45.894Z,76.25
2022-12-14T15:42:18.463Z,75.94
2022-12-14T15:44:52.087Z,76.24
2022-12-14T15:47:30.334Z,76.27
2022-12-14T15:50:25.558Z,76.16
2022-12-14T15:52:59.695Z,76.35
2022-12-14T15:55:35.594Z,77.62
2022-12-14T15:58:16.647Z,77.39
2022-12-14T16:00:49.000Z,77.96
2022-12-14T16:03:29.460Z,77.98
2022-12-14T16:06:01.394Z,77.58
2022-12-14T16:08:32.777Z,77.59
2022-12-14T16:11:07.221Z,77.78
2022-12-14T16:13:41.566Z,77.56
2022-12-14T16:16:17.416Z,77.71
2022-12-14T16:18:50.575Z,78.38
2022-12-14T16:21:31.684Z,78.50
2022-12-14T16:24:13.905Z,77.79
2022-12-14T16:26:44.263Z,77.96
2022-12-14T16:29:23.436Z,78.00
2022-12-14T16:31:52.404Z,77.97
2022-12-14T16:34:23.590Z,77.93
2022-12-14T16:39:49.745Z,78.98
2022-12-14T16:42:25.368Z,79.21
2022-12-14T16:44:56.397Z,78.63
2022-12-14T16:48:04.763Z,79.54
2022-12-14T16:50:55.889Z,78.95
2022-12-14T16:58:28.487Z,78.35
2022-12-14T17:01:03.778Z,78.73
2022-12-14T17:03:35.120Z,78.50
2022-12-14T17:06:07.729Z,78.80
2022-12-14T17:08:36.883Z,78.43
2022-12-14T17:11:06.688Z,78.22
2022-12-14T17:13:37.010Z,78.38
2022-12-14T17:16:09.329Z,78.23
2022-12-14T17:18:41.891Z,78.21
2022-12-14T17:21:23.706Z,78.67
2022-12-14T17:23:53.406Z,79.56
2022-12-14T17:26:26.816Z,80.03
2022-12-14T17:28:58.707Z,79.41
2022-12-14T17:31:29.243Z,79.02
2022-12-14T17:33:58.953Z,78.54
2022-12-14T17:36:28.104Z,78.38
2022-12-14T17:38:57.129Z,78.68
2022-12-14T17:41:29.002Z,79.58
2022-12-14T17:44:03.654Z,79.68
2022-12-14T17:46:35.969Z,79.02
2022-12-14T17:49:07.483Z,78.85
2022-12-14T17:51:42.238Z,79.32
2022-12-14T17:54:18.414Z,79.55
2022-12-14T17:56:48.528Z,79.26
2022-12-14T17:59:18.967Z,79.75
2022-12-14T18:01:48.845Z,79.98
2022-12-14T18:04:18.747Z,79.71
2022-12-14T18:06:48.165Z,79.29
2022-12-14T18:09:19.111Z,78.78
2022-12-14T18:12:21.010Z,78.54
2022-12-14T18:14:38.931Z,78.63
2022-12-14T18:21:19.684Z,79.02
2022-12-14T18:23:49.578Z,79.08
2022-12-14T18:26:21.126Z,79.07
2022-12-14T18:28:51.327Z,78.85
2022-12-14T18:31:25.899Z,79.00
2022-12-14T18:33:55.070Z,79.09
2022-12-14T18:36:24.922Z,79.07
2022-12-14T18:41:30.578Z,78.89
2022-12-14T18:44:00.792Z,78.91
2022-12-14T18:46:29.941Z,78.88
2022-12-14T18:49:01.525Z,78.07
2022-12-14T18:51:38.054Z,77.94
2022-12-14T18:54:43.700Z,78.41
2022-12-14T18:57:42.897Z,78.28
2022-12-14T19:00:20.442Z,78.56
2022-12-14T19:02:50.205Z,78.82
2022-12-14T19:05:26.039Z,78.83
2022-12-14T19:07:57.555Z,78.40
2022-12-14T19:10:34.180Z,77.70
2022-12-14T19:13:04.617Z,77.48
2022-12-14T19:15:36.865Z,77.30
2022-12-14T19:18:06.000Z,77.76
2022-12-14T19:20:35.162Z,77.69
2022-12-14T19:23:34.825Z,77.69
2022-12-14T19:26:04.932Z,77.38
2022-12-14T19:28:35.377Z,77.63
2022-12-14T19:31:06.989Z,78.18
2022-12-14T19:33:36.463Z,79.02
2022-12-14T19:36:07.011Z,78.08
2022-12-14T19:38:37.021Z,77.50
2022-12-14T19:41:10.014Z,77.55
2022-12-14T19:43:40.756Z,77.34
2022-12-14T19:46:11.741Z,77.52
2022-12-14T19:48:42.242Z,77.77
2022-12-14T19:51:14.692Z,78.39
2022-12-14T19:53:46.004Z,77.99
2022-12-14T19:56:20.738Z,77.52
2022-12-14T19:58:51.204Z,77.16
2022-12-14T20:01:20.086Z,77.09
2022-12-14T20:07:56.141Z,78.05
2022-12-14T20:10:23.653Z,77.53
2022-12-14T20:12:51.120Z,77.07
2022-12-14T20:15:18.734Z,77.42
2022-12-14T20:17:46.286Z,78.05
2022-12-14T20:20:13.737Z,78.17
2022-12-14T20:22:41.122Z,77.65
2022-12-14T20:31:37.782Z,77.46
2022-12-14T20:34:06.605Z,77.80
2022-12-14T20:36:34.077Z,77.50
2022-12-14T20:39:02.160Z,77.35
2022-12-14T20:41:31.190Z,77.39
2022-12-14T20:44:01.411Z,77.58
2022-12-14T20:46:32.207Z,77.09
2022-12-14T21:04:27.980Z,74.62
2022-12-14T21:06:55.439Z,73.92
2022-12-14T21:09:22.978Z,73.81
2022-12-14T21:12:24.463Z,72.92
2022-12-14T21:14:56.460Z,73.13
2022-12-14T21:17:28.284Z,73.28
2022-12-14T21:19:59.367Z,73.05
2022-12-14T21:22:30.483Z,73.36
2022-12-14T21:25:04.894Z,73.83
2022-12-14T21:27:38.511Z,74.02
2022-12-14T21:30:10.827Z,74.17
2022-12-14T21:32:39.916Z,73.62
2022-12-14T21:35:11.525Z,72.92
2022-12-14T21:37:40.624Z,72.01
2022-12-14T21:40:31.170Z,72.13
2022-12-14T21:42:58.951Z,72.71
2022-12-14T21:45:27.752Z,72.96
2022-12-14T21:47:57.742Z,72.71
2022-12-14T21:50:27.895Z,72.40
2022-12-14T21:52:56.643Z,72.90
2022-12-14T21:55:25.404Z,73.48
2022-12-14T21:58:11.491Z,73.61
2022-12-14T22:00:40.305Z,73.45
2022-12-14T22:03:09.143Z,73.00
2022-12-14T22:05:40.945Z,73.02
2022-12-14T22:08:09.719Z,72.79
2022-12-14T22:10:38.376Z,72.50
2022-12-14T22:13:07.027Z,72.64
2022-12-14T22:15:36.784Z,73.18
2022-12-14T22:18:05.818Z,73.11
2022-12-14T22:20:34.598Z,72.87
2022-12-14T22:27:44.197Z,72.34
2022-12-14T22:36:29.830Z,69.74
2022-12-14T22:52:28.361Z,70.66
2022-12-14T23:27:10.365Z,69.68
2022-12-14T23:29:56.740Z,68.99
2022-12-14T23:32:42.682Z,68.61
2022-12-14T23:35:28.924Z,69.58
2022-12-14T23:38:22.413Z,69.82
2022-12-14T23:41:08.961Z,70.54
2022-12-14T23:43:55.484Z,70.27
2022-12-14T23:46:41.450Z,70.08
2022-12-14T23:49:28.043Z,69.16
2022-12-14T23:52:14.250Z,68.53
2022-12-14T23:55:01.735Z,68.06
2022-12-14T23:57:48.046Z,68.18
